createdAt,value
2019-06-27T00:00:51.967Z,0
2019-06-27T00:01:53.609Z,0
2019-06-27T00:02:55.029Z,0
2019-06-27T00:03:56.523Z,0
2019-06-27T00:04:57.942Z,0
2019-06-27T00:05:59.766Z,0
2019-06-27T00:07:01.221Z,0
2019-06-27T00:08:02.644Z,0
2019-06-27T00:09:04.053Z,0
2019-06-27T00:10:05.560Z,0
2019-06-27T00:11:07.001Z,0
2019-06-27T00:12:08.690Z,0
2019-06-27T00:13:10.101Z,0
2019-06-27T00:14:11.724Z,0
2019-06-27T00:15:13.133Z,0
2019-06-27T00:16:14.551Z,0
2019-06-27T00:17:16.035Z,0
2019-06-27T00:18:17.435Z,0
2019-06-27T00:19:18.837Z,0
2019-06-27T00:20:20.358Z,0
2019-06-27T00:21:21.767Z,0
2019-06-27T00:22:23.247Z,0
2019-06-27T00:23:24.697Z,0
2019-06-27T00:24:26.314Z,0
2019-06-27T00:25:27.742Z,0
2019-06-27T00:26:29.212Z,0
2019-06-27T00:27:30.621Z,0
2019-06-27T00:28:32.098Z,0
2019-06-27T00:29:33.522Z,0
2019-06-27T00:30:35.164Z,0
2019-06-27T00:31:36.591Z,0
2019-06-27T00:32:38.072Z,0
2019-06-27T00:33:39.508Z,0
2019-06-27T00:34:41.137Z,0
2019-06-27T00:35:42.542Z,0
2019-06-27T00:36:44.013Z,0
2019-06-27T00:37:45.420Z,0
2019-06-27T00:38:46.897Z,0
2019-06-27T00:39:48.308Z,0
2019-06-27T00:40:49.778Z,0
2019-06-27T00:41:51.178Z,0
2019-06-27T00:42:52.665Z,0
2019-06-27T00:43:54.060Z,0
2019-06-27T00:44:55.547Z,0
2019-06-27T00:45:56.956Z,0
2019-06-27T00:46:58.352Z,0
2019-06-27T00:47:59.748Z,0
2019-06-27T00:49:01.154Z,0
2019-06-27T00:50:02.796Z,0
2019-06-27T00:51:04.161Z,0
2019-06-27T00:52:05.560Z,0
2019-06-27T00:53:07.065Z,0
2019-06-27T00:54:08.472Z,0
2019-06-27T00:55:09.870Z,0
2019-06-27T00:56:11.385Z,0
2019-06-27T00:57:14.387Z,0
2019-06-27T00:58:14.155Z,0
2019-06-27T00:59:15.709Z,0
2019-06-27T01:00:17.124Z,0
2019-06-27T01:01:18.517Z,0
2019-06-27T01:02:20.025Z,0
2019-06-27T01:03:21.491Z,0
2019-06-27T01:04:22.874Z,0
2019-06-27T01:05:33.189Z,0
2019-06-27T01:06:34.613Z,0
2019-06-27T01:07:36.150Z,0
2019-06-27T01:08:37.717Z,0
2019-06-27T01:09:39.141Z,0
2019-06-27T01:10:40.557Z,0
2019-06-27T01:11:43.025Z,0
2019-06-27T01:12:44.509Z,0
2019-06-27T01:13:45.956Z,0
2019-06-27T01:14:48.579Z,0
2019-06-27T01:15:49.980Z,0
2019-06-27T01:16:51.381Z,0
2019-06-27T01:17:52.895Z,0
2019-06-27T01:18:54.301Z,0
2019-06-27T01:19:55.777Z,0
2019-06-27T01:20:57.184Z,0
2019-06-27T01:21:58.681Z,0
2019-06-27T01:23:00.133Z,0
2019-06-27T01:24:01.543Z,0
2019-06-27T01:25:02.943Z,0
2019-06-27T01:26:04.425Z,0
2019-06-27T01:27:05.828Z,0
2019-06-27T01:28:07.303Z,0
2019-06-27T01:29:08.708Z,0
2019-06-27T01:30:10.185Z,0
2019-06-27T01:31:11.585Z,0
2019-06-27T01:32:12.987Z,0
2019-06-27T01:33:14.523Z,0
2019-06-27T01:34:15.909Z,0
2019-06-27T01:35:17.315Z,0
2019-06-27T01:36:18.829Z,0
2019-06-27T01:37:20.232Z,0
2019-06-27T01:38:21.666Z,0
2019-06-27T01:39:23.073Z,0
2019-06-27T01:40:24.468Z,0
2019-06-27T01:41:25.867Z,0
2019-06-27T01:42:27.277Z,0
2019-06-27T01:43:28.684Z,0
2019-06-27T01:44:30.147Z,0
2019-06-27T01:45:31.551Z,0
2019-06-27T01:46:33.022Z,0
2019-06-27T01:47:34.437Z,0
2019-06-27T01:48:35.884Z,0
2019-06-27T01:49:37.349Z,0
2019-06-27T01:50:38.751Z,0
2019-06-27T01:51:40.151Z,0
2019-06-27T01:52:41.669Z,0
2019-06-27T01:53:43.070Z,0
2019-06-27T01:54:44.552Z,0
2019-06-27T01:55:45.953Z,0
2019-06-27T01:56:47.444Z,0
2019-06-27T01:57:48.834Z,0
2019-06-27T01:58:50.317Z,0
2019-06-27T01:59:51.722Z,0
2019-06-27T02:00:53.195Z,0
2019-06-27T02:01:54.597Z,0
2019-06-27T02:02:56.003Z,0
2019-06-27T02:03:57.533Z,0
2019-06-27T02:04:58.940Z,0
2019-06-27T02:06:00.340Z,0
2019-06-27T02:07:01.921Z,0
2019-06-27T02:08:03.205Z,0
2019-06-27T02:09:04.614Z,0
2019-06-27T02:10:07.191Z,0
2019-06-27T02:11:08.590Z,0
2019-06-27T02:12:09.990Z,0
2019-06-27T02:13:11.503Z,0
2019-06-27T02:14:12.903Z,0
2019-06-27T02:15:14.303Z,0
2019-06-27T02:16:15.827Z,0
2019-06-27T02:17:17.234Z,0
2019-06-27T02:18:18.629Z,0
2019-06-27T02:19:20.151Z,0
2019-06-27T02:20:21.552Z,0
2019-06-27T02:21:23.029Z,0
2019-06-27T02:22:24.432Z,0
2019-06-27T02:23:25.908Z,0
2019-06-27T02:24:27.309Z,0
2019-06-27T02:25:28.837Z,0
2019-06-27T02:26:30.240Z,0
2019-06-27T02:27:31.713Z,0
2019-06-27T02:28:33.090Z,0
2019-06-27T02:29:34.562Z,0
2019-06-27T02:30:35.958Z,0
2019-06-27T02:31:37.439Z,0
2019-06-27T02:32:38.843Z,0
2019-06-27T02:33:40.242Z,0
2019-06-27T02:34:41.757Z,0
2019-06-27T02:35:43.165Z,0
2019-06-27T02:36:44.556Z,0
2019-06-27T02:37:46.129Z,0
2019-06-27T02:38:47.529Z,0
2019-06-27T02:39:48.953Z,0
2019-06-27T02:40:50.363Z,0
2019-06-27T02:41:51.841Z,0
2019-06-27T02:42:53.251Z,4
2019-06-27T02:43:54.634Z,4
2019-06-27T02:44:56.057Z,4
2019-06-27T02:45:57.471Z,0
2019-06-27T02:46:58.867Z,0
2019-06-27T02:48:00.377Z,4
2019-06-27T02:49:01.778Z,4
2019-06-27T02:50:03.187Z,4
2019-06-27T02:51:04.637Z,4
2019-06-27T02:52:06.031Z,4
2019-06-27T02:53:07.435Z,4
2019-06-27T02:54:08.954Z,4
2019-06-27T02:55:10.360Z,4
2019-06-27T02:56:11.800Z,4
2019-06-27T02:57:13.209Z,8
2019-06-27T02:58:29.694Z,8
2019-06-27T02:59:15.969Z,8
2019-06-27T03:00:17.373Z,8
2019-06-27T03:01:18.794Z,8
2019-06-27T03:02:20.198Z,8
2019-06-27T03:03:21.600Z,12
2019-06-27T03:04:23.018Z,12
2019-06-27T03:05:24.420Z,16
2019-06-27T03:06:25.814Z,16
2019-06-27T03:07:27.238Z,20
2019-06-27T03:08:28.643Z,20
2019-06-27T03:09:30.118Z,16
2019-06-27T03:10:31.523Z,24
2019-06-27T03:11:33.032Z,24
2019-06-27T03:12:34.449Z,28
2019-06-27T03:13:35.861Z,28
2019-06-27T03:14:37.319Z,32
2019-06-27T03:15:38.726Z,32
2019-06-27T03:16:40.127Z,36
2019-06-27T03:17:41.643Z,36
2019-06-27T03:18:43.065Z,40
2019-06-27T03:19:44.539Z,44
2019-06-27T03:20:45.927Z,44
2019-06-27T03:21:47.413Z,48
2019-06-27T03:22:48.820Z,52
2019-06-27T03:23:50.230Z,48
2019-06-27T03:24:51.734Z,52
2019-06-27T03:25:53.130Z,56
2019-06-27T03:26:54.533Z,56
2019-06-27T03:27:56.046Z,60
2019-06-27T03:28:57.471Z,60
2019-06-27T03:29:58.849Z,64
2019-06-27T03:31:00.303Z,60
2019-06-27T03:32:01.714Z,68
2019-06-27T03:33:03.165Z,80
2019-06-27T03:34:04.570Z,80
2019-06-27T03:35:05.971Z,80
2019-06-27T03:36:07.490Z,84
2019-06-27T03:37:08.835Z,92
2019-06-27T03:38:10.240Z,100
2019-06-27T03:39:11.717Z,108
2019-06-27T03:40:13.169Z,104
2019-06-27T03:41:14.691Z,112
2019-06-27T03:42:16.105Z,112
2019-06-27T03:43:17.595Z,112
2019-06-27T03:44:19.009Z,124
2019-06-27T03:45:20.438Z,136
2019-06-27T03:46:21.874Z,164
2019-06-27T03:47:23.315Z,168
2019-06-27T03:48:24.720Z,180
2019-06-27T03:49:26.441Z,232
2019-06-27T03:50:27.935Z,240
2019-06-27T03:51:29.401Z,276
2019-06-27T03:52:30.813Z,320
2019-06-27T03:53:32.218Z,284
2019-06-27T03:54:33.706Z,264
2019-06-27T03:55:35.158Z,256
2019-06-27T03:56:36.563Z,276
2019-06-27T03:57:38.044Z,280
2019-06-27T03:58:39.547Z,292
2019-06-27T03:59:40.977Z,272
2019-06-27T04:00:42.453Z,300
2019-06-27T04:01:43.854Z,300
2019-06-27T04:02:45.263Z,312
2019-06-27T04:03:46.783Z,324
2019-06-27T04:04:48.179Z,336
2019-06-27T04:05:49.660Z,336
2019-06-27T04:06:51.065Z,396
2019-06-27T04:07:52.534Z,388
2019-06-27T04:08:53.940Z,408
2019-06-27T04:09:55.353Z,396
2019-06-27T04:10:56.861Z,424
2019-06-27T04:11:58.291Z,444
2019-06-27T04:12:59.699Z,456
2019-06-27T04:14:01.221Z,508
2019-06-27T04:15:02.579Z,560
2019-06-27T04:16:04.051Z,564
2019-06-27T04:17:05.469Z,572
2019-06-27T04:18:06.942Z,688
2019-06-27T04:19:08.351Z,672
2019-06-27T04:20:09.839Z,608
2019-06-27T04:21:11.225Z,660
2019-06-27T04:22:17.123Z,712
2019-06-27T04:23:14.068Z,768
2019-06-27T04:24:15.504Z,768
2019-06-27T04:25:17.945Z,804
2019-06-27T04:26:19.347Z,952
2019-06-27T04:27:20.750Z,912
2019-06-27T04:28:22.271Z,904
2019-06-27T04:29:33.395Z,1052
2019-06-27T04:30:25.035Z,904
2019-06-27T04:31:26.483Z,1052
2019-06-27T04:32:27.888Z,1064
2019-06-27T04:33:29.301Z,1060
2019-06-27T04:34:30.802Z,1172
2019-06-27T04:35:32.236Z,1112
2019-06-27T04:36:33.715Z,1108
2019-06-27T04:37:35.120Z,1192
2019-06-27T04:38:36.565Z,1196
2019-06-27T04:39:37.975Z,1072
2019-06-27T04:40:39.382Z,992
2019-06-27T04:41:41.092Z,1100
2019-06-27T04:42:42.512Z,1116
2019-06-27T04:43:43.915Z,1164
2019-06-27T04:44:45.417Z,1336
2019-06-27T04:45:46.827Z,1300
2019-06-27T04:46:48.227Z,1180
2019-06-27T04:47:49.730Z,1164
2019-06-27T04:48:51.148Z,1084
2019-06-27T04:49:52.552Z,1112
2019-06-27T04:50:54.060Z,1276
2019-06-27T04:51:55.469Z,1468
2019-06-27T04:52:56.941Z,1656
2019-06-27T04:53:58.340Z,1664
2019-06-27T04:55:03.015Z,2072
2019-06-27T04:56:01.202Z,2248
2019-06-27T04:57:02.704Z,2376
2019-06-27T04:58:04.100Z,1860
2019-06-27T04:59:05.627Z,1504
2019-06-27T05:00:07.046Z,1360
2019-06-27T05:01:08.465Z,1580
2019-06-27T05:02:09.906Z,1880
2019-06-27T05:03:11.347Z,1828
2019-06-27T05:04:12.754Z,1548
2019-06-27T05:05:14.223Z,1692
2019-06-27T05:06:15.657Z,2148
2019-06-27T05:07:17.141Z,1928
2019-06-27T05:08:18.547Z,2108
2019-06-27T05:09:19.989Z,2344
2019-06-27T05:10:21.392Z,2196
2019-06-27T05:11:22.882Z,1792
2019-06-27T05:12:24.283Z,1716
2019-06-27T05:13:25.750Z,1892
2019-06-27T05:14:27.154Z,1592
2019-06-27T05:15:28.635Z,1988
2019-06-27T05:16:30.040Z,2100
2019-06-27T05:17:31.507Z,1892
2019-06-27T05:18:32.925Z,2536
2019-06-27T05:19:34.390Z,2100
2019-06-27T05:20:35.827Z,1792
2019-06-27T05:21:37.273Z,2360
2019-06-27T05:22:38.677Z,2308
2019-06-27T05:23:40.152Z,2384
2019-06-27T05:24:41.562Z,2712
2019-06-27T05:25:44.058Z,2540
2019-06-27T05:26:45.467Z,2276
2019-06-27T05:27:46.938Z,2332
2019-06-27T05:28:48.352Z,2376
2019-06-27T05:29:49.834Z,3132
2019-06-27T05:30:51.753Z,3692
2019-06-27T05:31:52.702Z,3772
2019-06-27T05:32:54.118Z,4268
2019-06-27T05:33:55.583Z,3752
2019-06-27T05:34:56.996Z,3312
2019-06-27T05:35:58.464Z,3296
2019-06-27T05:36:59.872Z,3396
2019-06-27T05:38:01.347Z,4036
2019-06-27T05:39:02.755Z,3392
2019-06-27T05:40:04.233Z,2916
2019-06-27T05:41:05.634Z,2888
2019-06-27T05:42:07.106Z,2696
2019-06-27T05:43:08.512Z,2816
2019-06-27T05:44:09.992Z,2412
2019-06-27T05:45:11.395Z,2668
2019-06-27T05:46:12.825Z,3364
2019-06-27T05:47:14.308Z,2900
2019-06-27T05:48:15.710Z,3204
2019-06-27T05:49:17.119Z,3308
2019-06-27T05:50:18.629Z,2732
2019-06-27T05:51:20.118Z,3280
2019-06-27T05:52:21.480Z,4244
2019-06-27T05:53:22.953Z,3620
2019-06-27T05:54:24.360Z,3580
2019-06-27T05:55:25.766Z,3180
2019-06-27T05:56:27.301Z,3112
2019-06-27T05:57:28.679Z,3184
2019-06-27T05:58:30.133Z,2368
2019-06-27T05:59:31.596Z,2472
2019-06-27T06:00:32.999Z,2516
2019-06-27T06:01:34.474Z,2612
2019-06-27T06:02:35.885Z,3592
2019-06-27T06:03:37.355Z,4100
2019-06-27T06:04:38.752Z,4476
2019-06-27T06:05:40.173Z,4364
2019-06-27T06:06:41.676Z,4732
2019-06-27T06:07:43.089Z,5008
2019-06-27T06:08:44.508Z,4948
2019-06-27T06:09:46.004Z,5400
2019-06-27T06:10:47.412Z,5092
2019-06-27T06:11:48.878Z,5760
2019-06-27T06:12:50.286Z,6196
2019-06-27T06:13:51.763Z,7368
2019-06-27T06:14:53.169Z,6788
2019-06-27T06:15:54.581Z,6964
2019-06-27T06:16:56.119Z,7652
2019-06-27T06:17:57.501Z,7396
2019-06-27T06:18:58.963Z,5816
2019-06-27T06:20:00.402Z,5372
2019-06-27T06:21:01.881Z,5704
2019-06-27T06:22:03.379Z,6836
2019-06-27T06:23:04.841Z,6528
2019-06-27T06:24:06.371Z,6368
2019-06-27T06:25:07.791Z,6064
2019-06-27T06:26:09.253Z,5868
2019-06-27T06:27:10.727Z,5816
2019-06-27T06:28:12.239Z,7760
2019-06-27T06:29:13.646Z,7472
2019-06-27T06:30:15.135Z,5644
2019-06-27T06:31:16.548Z,5908
2019-06-27T06:32:17.966Z,6024
2019-06-27T06:33:19.437Z,5632
2019-06-27T06:34:20.852Z,5912
2019-06-27T06:35:22.272Z,7840
2019-06-27T06:36:23.775Z,33664
2019-06-27T06:37:25.186Z,7096
2019-06-27T06:38:26.589Z,5216
2019-06-27T06:39:28.190Z,7680
2019-06-27T06:40:29.600Z,7604
2019-06-27T06:41:31.021Z,7460
2019-06-27T06:42:32.567Z,48224
2019-06-27T06:43:33.917Z,44768
2019-06-27T06:44:35.330Z,12424
2019-06-27T06:45:36.833Z,10260
2019-06-27T06:46:38.234Z,23648
2019-06-27T06:47:39.686Z,30560
2019-06-27T06:48:41.152Z,59296
2019-06-27T06:49:42.560Z,17152
2019-06-27T06:50:43.966Z,9392
2019-06-27T06:51:45.501Z,12064
2019-06-27T06:52:46.897Z,15280
2019-06-27T06:53:48.351Z,19968
2019-06-27T06:54:49.762Z,60288
2019-06-27T06:55:51.167Z,58112
2019-06-27T06:56:52.684Z,29728
2019-06-27T06:57:54.091Z,56224
2019-06-27T06:58:55.501Z,48384
2019-06-27T06:59:56.996Z,59296
2019-06-27T07:01:02.035Z,62496
2019-06-27T07:01:59.778Z,61440
2019-06-27T07:03:01.219Z,60192
2019-06-27T07:04:02.631Z,60000
2019-06-27T07:05:04.122Z,55584
2019-06-27T07:06:05.546Z,59776
2019-06-27T07:07:07.047Z,61088
2019-06-27T07:08:08.419Z,61856
2019-06-27T07:09:09.879Z,60512
2019-06-27T07:10:11.271Z,62080
2019-06-27T07:11:12.743Z,59936
2019-06-27T07:12:14.150Z,59936
2019-06-27T07:13:15.621Z,61632
2019-06-27T07:14:17.025Z,63904
2019-06-27T07:15:18.501Z,65024
2019-06-27T07:16:19.912Z,64288
2019-06-27T07:17:21.320Z,63552
2019-06-27T07:18:22.822Z,63616
2019-06-27T07:19:24.239Z,58784
2019-06-27T07:20:25.692Z,59744
2019-06-27T07:21:27.142Z,63488
2019-06-27T07:22:28.554Z,63968
2019-06-27T07:23:29.965Z,66304
2019-06-27T07:24:31.470Z,69984
2019-06-27T07:25:32.877Z,70400
2019-06-27T07:26:34.296Z,68672
2019-06-27T07:27:35.791Z,67136
2019-06-27T07:28:37.210Z,67552
2019-06-27T07:29:38.667Z,70144
2019-06-27T07:30:40.082Z,72480
2019-06-27T07:31:41.492Z,69696
2019-06-27T07:32:42.987Z,74560
2019-06-27T07:33:44.405Z,75584
2019-06-27T07:34:45.820Z,72256
2019-06-27T07:35:47.319Z,68928
2019-06-27T07:36:48.746Z,71616
2019-06-27T07:37:50.155Z,76448
2019-06-27T07:38:51.638Z,75328
2019-06-27T07:39:53.086Z,71040
2019-06-27T07:40:54.519Z,70336
2019-06-27T07:41:55.952Z,73056
2019-06-27T07:42:57.369Z,74464
2019-06-27T07:43:58.804Z,75232
2019-06-27T07:45:00.285Z,75648
2019-06-27T07:46:01.705Z,74720
2019-06-27T07:47:03.118Z,75808
2019-06-27T07:48:04.596Z,77984
2019-06-27T07:49:06.013Z,76640
2019-06-27T07:50:07.483Z,73600
2019-06-27T07:51:08.930Z,74048
2019-06-27T07:52:10.348Z,74688
2019-06-27T07:53:11.804Z,73696
2019-06-27T07:54:13.244Z,75872
2019-06-27T07:55:14.664Z,76352
2019-06-27T07:56:16.153Z,78912
2019-06-27T07:57:17.544Z,83008
2019-06-27T07:58:19.017Z,81920
2019-06-27T07:59:20.453Z,78784
2019-06-27T08:00:21.995Z,77952
2019-06-27T08:01:34.538Z,73920
2019-06-27T08:02:24.827Z,71488
2019-06-27T08:03:26.241Z,72192
2019-06-27T08:04:27.986Z,69088
2019-06-27T08:05:29.178Z,66016
2019-06-27T08:06:30.711Z,13440
2019-06-27T08:07:32.076Z,62496
2019-06-27T08:08:33.539Z,67680
2019-06-27T08:09:34.950Z,72480
2019-06-27T08:10:36.386Z,47328
2019-06-27T08:11:37.833Z,67040
2019-06-27T08:12:42.113Z,4220
2019-06-27T08:13:40.739Z,76160
2019-06-27T08:14:42.158Z,79712
2019-06-27T08:15:43.599Z,4320
2019-06-27T08:16:45.039Z,4364
2019-06-27T08:17:46.499Z,4352
2019-06-27T08:18:48.086Z,4420
2019-06-27T08:19:49.568Z,4244
2019-06-27T08:20:50.968Z,4140
2019-06-27T08:21:52.432Z,4092
2019-06-27T08:22:53.915Z,3980
2019-06-27T08:23:55.419Z,4000
2019-06-27T08:24:56.931Z,3912
2019-06-27T08:25:58.296Z,3880
2019-06-27T08:26:59.722Z,3840
2019-06-27T08:28:01.186Z,4840
2019-06-27T08:29:02.602Z,3940
2019-06-27T08:30:07.895Z,3948
2019-06-27T08:31:05.445Z,3936
2019-06-27T08:32:06.855Z,3856
2019-06-27T08:33:08.287Z,3848
2019-06-27T08:34:09.699Z,3852
2019-06-27T08:35:11.108Z,4052
2019-06-27T08:36:12.609Z,3832
2019-06-27T08:37:14.015Z,3836
2019-06-27T08:38:15.425Z,3812
2019-06-27T08:39:16.927Z,3892
2019-06-27T08:40:18.329Z,3856
2019-06-27T08:41:19.807Z,3856
2019-06-27T08:42:21.209Z,3800
2019-06-27T08:43:22.684Z,3740
2019-06-27T08:44:24.094Z,3756
2019-06-27T08:45:25.574Z,3752
2019-06-27T08:46:29.699Z,3720
2019-06-27T08:47:28.447Z,3680
2019-06-27T08:48:29.849Z,3652
2019-06-27T08:49:31.325Z,3680
2019-06-27T08:50:32.730Z,3772
2019-06-27T08:51:34.207Z,3780
2019-06-27T08:52:35.708Z,3792
2019-06-27T08:53:37.067Z,3768
2019-06-27T08:54:38.531Z,3792
2019-06-27T08:55:39.957Z,3848
2019-06-27T08:56:41.357Z,4004
2019-06-27T08:57:42.853Z,4504
2019-06-27T08:58:44.265Z,7516
2019-06-27T08:59:45.731Z,10040
2019-06-27T09:00:47.140Z,79680
2019-06-27T09:01:48.628Z,71008
2019-06-27T09:02:50.018Z,3656
2019-06-27T09:03:51.427Z,3832
2019-06-27T09:04:52.943Z,3560
2019-06-27T09:05:54.341Z,3416
2019-06-27T09:06:55.749Z,3452
2019-06-27T09:07:57.251Z,3384
2019-06-27T09:08:58.659Z,3420
2019-06-27T09:10:00.165Z,3312
2019-06-27T09:11:01.703Z,3364
2019-06-27T09:12:03.121Z,4260
2019-06-27T09:13:04.523Z,5040
2019-06-27T09:14:07.060Z,5096
2019-06-27T09:15:08.468Z,11040
2019-06-27T09:16:09.914Z,68512
2019-06-27T09:17:11.320Z,5436
2019-06-27T09:18:12.784Z,14700
2019-06-27T09:19:14.195Z,6476
2019-06-27T09:20:15.668Z,3284
2019-06-27T09:21:17.071Z,3116
2019-06-27T09:22:18.553Z,3180
2019-06-27T09:23:19.954Z,3304
2019-06-27T09:24:21.359Z,2992
2019-06-27T09:25:22.873Z,3100
2019-06-27T09:26:24.279Z,3072
2019-06-27T09:27:25.685Z,3072
2019-06-27T09:28:27.193Z,3440
2019-06-27T09:29:28.596Z,21888
2019-06-27T09:30:29.999Z,18304
2019-06-27T09:31:31.622Z,3220
2019-06-27T09:32:33.067Z,3148
2019-06-27T09:33:34.465Z,3156
2019-06-27T09:34:35.934Z,3108
2019-06-27T09:35:37.340Z,3200
2019-06-27T09:36:38.750Z,3204
2019-06-27T09:37:40.151Z,3096
2019-06-27T09:38:41.558Z,3060
2019-06-27T09:39:44.160Z,2884
2019-06-27T09:40:45.563Z,3084
2019-06-27T09:41:46.979Z,2980
2019-06-27T09:42:50.677Z,3056
2019-06-27T09:43:52.072Z,3036
2019-06-27T09:44:53.466Z,3044
2019-06-27T09:45:54.877Z,3136
2019-06-27T09:46:56.284Z,3160
2019-06-27T09:47:57.721Z,3124
2019-06-27T09:48:59.390Z,3152
2019-06-27T09:50:00.791Z,3204
2019-06-27T09:51:02.274Z,3212
2019-06-27T09:52:03.885Z,3244
2019-06-27T09:53:05.289Z,3268
2019-06-27T09:54:06.698Z,3316
2019-06-27T09:55:08.123Z,3332
2019-06-27T09:56:09.522Z,3508
2019-06-27T09:57:10.935Z,3672
2019-06-27T09:58:12.442Z,4104
2019-06-27T09:59:13.850Z,4616
2019-06-27T10:00:15.252Z,5052
2019-06-27T10:01:16.773Z,5108
2019-06-27T10:02:18.171Z,4564
2019-06-27T10:03:19.587Z,3640
2019-06-27T10:04:22.018Z,3096
2019-06-27T10:05:23.411Z,2940
2019-06-27T10:06:26.263Z,2812
2019-06-27T10:07:26.329Z,2800
2019-06-27T10:08:27.738Z,2696
2019-06-27T10:09:29.158Z,2648
2019-06-27T10:10:30.653Z,2588
2019-06-27T10:11:32.068Z,2536
2019-06-27T10:12:42.150Z,2536
2019-06-27T10:13:34.898Z,2516
2019-06-27T10:14:36.410Z,2500
2019-06-27T10:15:37.818Z,2520
2019-06-27T10:16:39.298Z,2548
2019-06-27T10:17:40.704Z,2512
2019-06-27T10:18:42.178Z,2500
2019-06-27T10:19:43.613Z,2484
2019-06-27T10:20:45.058Z,2616
2019-06-27T10:21:46.463Z,2472
2019-06-27T10:22:47.938Z,2504
2019-06-27T10:23:49.348Z,2548
2019-06-27T10:24:50.817Z,2420
2019-06-27T10:25:52.224Z,2424
2019-06-27T10:26:53.695Z,2376
2019-06-27T10:27:55.101Z,2380
2019-06-27T10:28:56.599Z,2368
2019-06-27T10:29:57.992Z,2372
2019-06-27T10:30:59.471Z,2512
2019-06-27T10:32:00.880Z,2464
2019-06-27T10:33:02.336Z,2432
2019-06-27T10:34:03.751Z,2364
2019-06-27T10:35:05.225Z,2352
2019-06-27T10:36:06.629Z,2384
2019-06-27T10:37:08.103Z,2368
2019-06-27T10:38:09.515Z,2340
2019-06-27T10:39:10.916Z,2324
2019-06-27T10:40:12.436Z,2320
2019-06-27T10:41:13.846Z,2308
2019-06-27T10:42:15.250Z,2340
2019-06-27T10:43:16.749Z,2304
2019-06-27T10:44:18.191Z,2344
2019-06-27T10:45:19.635Z,2244
2019-06-27T10:46:21.030Z,2248
2019-06-27T10:47:22.508Z,2276
2019-06-27T10:48:23.914Z,2300
2019-06-27T10:49:25.333Z,2304
2019-06-27T10:50:26.830Z,2460
2019-06-27T10:51:28.235Z,3052
2019-06-27T10:52:29.644Z,6080
2019-06-27T10:53:31.163Z,38208
2019-06-27T10:54:32.570Z,34112
2019-06-27T10:55:34.034Z,21280
2019-06-27T10:56:39.630Z,9220
2019-06-27T10:57:36.907Z,2268
2019-06-27T10:58:38.405Z,2204
2019-06-27T10:59:39.812Z,2184
2019-06-27T11:00:41.651Z,2140
2019-06-27T11:01:43.106Z,2180
2019-06-27T11:02:44.558Z,2196
2019-06-27T11:03:46.170Z,2184
2019-06-27T11:04:47.580Z,2180
2019-06-27T11:05:48.985Z,2164
2019-06-27T11:06:50.574Z,2132
2019-06-27T11:07:51.959Z,2136
2019-06-27T11:08:53.370Z,2112
2019-06-27T11:09:54.811Z,2088
2019-06-27T11:10:56.269Z,2076
2019-06-27T11:11:58.108Z,2032
2019-06-27T11:12:59.719Z,2016
2019-06-27T11:14:00.880Z,2012
2019-06-27T11:15:02.434Z,1992
2019-06-27T11:16:03.850Z,1984
2019-06-27T11:17:05.245Z,1952
2019-06-27T11:18:06.748Z,1980
2019-06-27T11:19:08.148Z,1972
2019-06-27T11:20:09.673Z,1952
2019-06-27T11:21:13.802Z,1920
2019-06-27T11:22:12.650Z,1900
2019-06-27T11:23:14.155Z,1896
2019-06-27T11:24:15.579Z,1904
2019-06-27T11:25:16.984Z,1900
2019-06-27T11:26:18.486Z,1892
2019-06-27T11:27:19.894Z,1912
2019-06-27T11:28:21.292Z,1916
2019-06-27T11:29:22.802Z,1888
2019-06-27T11:30:24.206Z,1884
2019-06-27T11:31:25.883Z,1888
2019-06-27T11:32:27.284Z,1884
2019-06-27T11:33:32.991Z,1828
2019-06-27T11:34:30.141Z,1832
2019-06-27T11:35:31.731Z,1832
2019-06-27T11:36:33.187Z,1812
2019-06-27T11:37:34.596Z,1796
2019-06-27T11:38:35.999Z,1796
2019-06-27T11:39:37.671Z,1784
2019-06-27T11:40:39.082Z,1792
2019-06-27T11:41:40.641Z,1804
2019-06-27T11:42:42.011Z,1772
2019-06-27T11:43:43.507Z,1752
2019-06-27T11:44:44.929Z,1760
2019-06-27T11:45:46.356Z,1776
2019-06-27T11:46:47.761Z,1756
2019-06-27T11:47:49.307Z,1740
2019-06-27T11:48:50.725Z,1740
2019-06-27T11:49:52.224Z,1756
2019-06-27T11:50:53.850Z,1752
2019-06-27T11:51:55.308Z,1744
2019-06-27T11:52:56.713Z,1784
2019-06-27T11:53:58.189Z,1808
2019-06-27T11:54:59.595Z,1872
2019-06-27T11:56:01.069Z,1904
2019-06-27T11:57:02.611Z,1912
2019-06-27T11:58:04.023Z,1896
2019-06-27T11:59:05.566Z,1888
2019-06-27T12:00:07.154Z,1868
2019-06-27T12:01:09.251Z,1836
2019-06-27T12:02:10.661Z,1832
2019-06-27T12:03:12.179Z,1804
2019-06-27T12:04:13.583Z,1800
2019-06-27T12:05:15.046Z,1784
2019-06-27T12:06:16.498Z,1796
2019-06-27T12:07:17.902Z,1804
2019-06-27T12:08:19.385Z,1832
2019-06-27T12:09:20.837Z,1872
2019-06-27T12:10:22.260Z,1908
2019-06-27T12:11:23.668Z,1956
2019-06-27T12:12:25.140Z,1972
2019-06-27T12:13:26.558Z,1916
2019-06-27T12:14:28.041Z,1852
2019-06-27T12:15:29.443Z,1772
2019-06-27T12:16:30.906Z,1724
2019-06-27T12:17:32.340Z,1692
2019-06-27T12:18:33.745Z,1648
2019-06-27T12:19:35.152Z,1656
2019-06-27T12:20:36.661Z,1640
2019-06-27T12:21:38.073Z,1652
2019-06-27T12:22:39.542Z,1644
2019-06-27T12:23:40.946Z,1676
2019-06-27T12:24:42.505Z,1720
2019-06-27T12:25:43.952Z,1704
2019-06-27T12:26:45.428Z,1524
2019-06-27T12:27:46.837Z,1504
2019-06-27T12:28:48.306Z,1692
2019-06-27T12:29:49.719Z,1412
2019-06-27T12:30:51.196Z,1420
2019-06-27T12:31:52.574Z,1444
2019-06-27T12:32:54.076Z,1436
2019-06-27T12:34:06.450Z,1416
2019-06-27T12:34:56.846Z,1432
2019-06-27T12:35:58.292Z,1456
2019-06-27T12:36:59.692Z,1660
2019-06-27T12:38:01.154Z,1488
2019-06-27T12:39:02.555Z,1492
2019-06-27T12:40:04.032Z,1524
2019-06-27T12:41:05.437Z,1588
2019-06-27T12:42:06.912Z,1672
2019-06-27T12:43:08.398Z,1716
2019-06-27T12:44:09.792Z,1732
2019-06-27T12:45:11.198Z,1668
2019-06-27T12:46:12.601Z,1596
2019-06-27T12:47:14.115Z,1564
2019-06-27T12:48:15.523Z,2344
2019-06-27T12:49:16.941Z,1744
2019-06-27T12:50:18.696Z,1720
2019-06-27T12:51:19.818Z,1860
2019-06-27T12:52:21.315Z,2192
2019-06-27T12:53:22.722Z,2192
2019-06-27T12:54:24.198Z,2568
2019-06-27T12:55:25.596Z,2816
2019-06-27T12:56:27.082Z,2980
2019-06-27T12:57:28.487Z,3372
2019-06-27T12:58:29.959Z,3308
2019-06-27T12:59:31.362Z,2648
2019-06-27T13:00:32.764Z,2268
2019-06-27T13:01:34.281Z,2664
2019-06-27T13:02:35.687Z,3428
2019-06-27T13:03:37.093Z,3660
2019-06-27T13:04:38.670Z,3832
2019-06-27T13:05:39.977Z,3912
2019-06-27T13:06:41.397Z,3316
2019-06-27T13:07:42.821Z,2888
2019-06-27T13:08:44.228Z,2960
2019-06-27T13:09:45.632Z,2136
2019-06-27T13:10:47.141Z,1900
2019-06-27T13:11:48.557Z,1724
2019-06-27T13:12:50.025Z,1604
2019-06-27T13:13:51.428Z,1516
2019-06-27T13:14:52.903Z,1448
2019-06-27T13:15:54.309Z,1380
2019-06-27T13:16:55.785Z,1296
2019-06-27T13:17:57.190Z,1216
2019-06-27T13:18:58.665Z,1168
2019-06-27T13:20:00.089Z,1168
2019-06-27T13:21:01.471Z,1176
2019-06-27T13:22:02.985Z,1180
2019-06-27T13:23:04.392Z,1144
2019-06-27T13:24:05.844Z,1116
2019-06-27T13:25:07.316Z,1096
2019-06-27T13:26:08.721Z,1060
2019-06-27T13:27:10.123Z,1032
2019-06-27T13:28:11.629Z,1020
2019-06-27T13:29:13.033Z,1020
2019-06-27T13:30:14.439Z,1004
2019-06-27T13:31:15.951Z,1012
2019-06-27T13:32:17.354Z,992
2019-06-27T13:33:18.761Z,1000
2019-06-27T13:34:20.271Z,992
2019-06-27T13:35:21.675Z,984
2019-06-27T13:36:23.126Z,988
2019-06-27T13:37:24.591Z,984
2019-06-27T13:38:26.006Z,972
2019-06-27T13:39:27.484Z,968
2019-06-27T13:40:28.883Z,976
2019-06-27T13:41:30.353Z,968
2019-06-27T13:42:31.792Z,972
2019-06-27T13:43:33.200Z,960
2019-06-27T13:44:34.595Z,952
2019-06-27T13:45:36.014Z,952
2019-06-27T13:46:37.420Z,948
2019-06-27T13:47:38.829Z,948
2019-06-27T13:48:40.333Z,948
2019-06-27T13:49:45.014Z,940
2019-06-27T13:50:43.109Z,932
2019-06-27T13:51:44.553Z,936
2019-06-27T13:52:45.961Z,936
2019-06-27T13:53:47.374Z,928
2019-06-27T13:54:49.307Z,924
2019-06-27T13:55:50.719Z,916
2019-06-27T13:56:52.121Z,912
2019-06-27T13:57:57.171Z,912